Time;durP1;ratioP1;P1;durP2;ratioP2;P2;SDS_P1;SDS_P2;PMS_P1;PMS_P2;Temp;Humidity;BMP_temperature;BMP_pressure;BME280_temperature;BME280_humidity;BME280_pressure;Samples;Min_cycle;Max_cycle;Signal;HPM_P1;HPM_P2
2024/01/19 00:00:36;;;;;;;59.58;25.27;;;;;;;-2.21;100.00;101456.28;5272862;28;20073;-72
2024/01/19 00:03:07;;;;;;;41.80;21.88;;;;;;;-2.19;100.00;101456.22;5277982;28;20032;-71
2024/01/19 00:05:37;;;;;;;45.67;22.58;;;;;;;-2.13;100.00;101453.28;5278850;28;20107;-71
2024/01/19 00:08:07;;;;;;;44.72;22.02;;;;;;;-2.08;100.00;101465.31;5284441;27;20034;-71
2024/01/19 00:10:38;;;;;;;46.85;23.45;;;;;;;-1.97;100.00;101474.47;5279137;28;20031;-72
2024/01/19 00:13:08;;;;;;;44.08;22.33;;;;;;;-1.97;100.00;101472.69;5282280;28;20076;-72
2024/01/19 00:15:39;;;;;;;51.03;22.15;;;;;;;-1.88;100.00;101488.06;5274389;28;20034;-71
2024/01/19 00:18:10;;;;;;;44.63;20.65;;;;;;;-1.80;100.00;101487.72;5278205;28;20031;-72
2024/01/19 00:20:41;;;;;;;38.90;20.58;;;;;;;-1.77;100.00;101490.19;5278974;28;20508;-71
2024/01/19 00:23:12;;;;;;;43.78;20.27;;;;;;;-1.79;100.00;101494.66;5271628;28;20047;-71
2024/01/19 00:25:42;;;;;;;40.80;20.35;;;;;;;-1.72;100.00;101492.59;5284215;28;20027;-73
2024/01/19 00:28:13;;;;;;;45.67;21.48;;;;;;;-1.66;100.00;101497.56;5277799;28;20024;-71
2024/01/19 00:30:43;;;;;;;39.20;19.00;;;;;;;-1.49;100.00;101492.38;5278809;28;20055;-71
2024/01/19 00:33:14;;;;;;;45.35;20.70;;;;;;;-1.29;100.00;101493.19;5277528;28;20027;-72
2024/01/19 00:35:44;;;;;;;41.42;19.75;;;;;;;-1.18;100.00;101497.00;5274946;28;20053;-71
2024/01/19 00:38:15;;;;;;;36.35;18.85;;;;;;;-1.13;100.00;101500.25;5275296;28;20450;-73
2024/01/19 00:40:45;;;;;;;43.28;19.85;;;;;;;-1.09;100.00;101495.69;5280083;28;20036;-71
2024/01/19 00:43:16;;;;;;;40.55;20.52;;;;;;;-1.11;100.00;101487.84;5276994;28;20036;-71
2024/01/19 00:45:46;;;;;;;42.50;18.73;;;;;;;-1.14;100.00;101497.72;5277435;28;20385;-71
2024/01/19 00:48:17;;;;;;;42.72;19.27;;;;;;;-1.20;100.00;101492.75;5274477;28;20056;-71
2024/01/19 00:50:47;;;;;;;37.25;17.42;;;;;;;-1.28;100.00;101487.84;5274956;28;20020;-72
2024/01/19 00:53:17;;;;;;;44.13;17.85;;;;;;;-1.36;100.00;101504.00;5271523;28;20435;-71
2024/01/19 00:55:48;;;;;;;45.83;19.73;;;;;;;-1.47;100.00;101501.03;5276632;28;20418;-71
2024/01/19 00:58:18;;;;;;;39.30;18.85;;;;;;;-1.55;100.00;101505.81;5273753;28;20129;-71
2024/01/19 01:00:49;;;;;;;37.22;18.13;;;;;;;-1.66;100.00;101498.41;5268779;28;20028;-71
2024/01/19 01:03:22;;;;;;;45.85;18.92;;;;;;;-1.80;100.00;101498.22;5273956;28;20034;-71
2024/01/19 01:05:56;;;;;;;46.55;17.83;;;;;;;-1.93;100.00;101495.28;5274811;28;20389;-71
2024/01/19 01:08:27;;;;;;;36.17;17.30;;;;;;;-2.01;100.00;101497.41;5282317;28;20235;-71
2024/01/19 01:10:58;;;;;;;42.85;20.25;;;;;;;-2.02;100.00;101500.97;5282190;28;20019;-73
2024/01/19 01:13:28;;;;;;;41.35;19.75;;;;;;;-2.00;100.00;101500.94;5273143;28;20023;-71
2024/01/19 01:15:59;;;;;;;39.80;20.00;;;;;;;-2.03;100.00;101501.06;5278830;28;20023;-71
2024/01/19 01:18:29;;;;;;;45.20;21.45;;;;;;;-2.05;100.00;101511.66;5273166;28;20024;-71
2024/01/19 01:21:00;;;;;;;48.70;21.60;;;;;;;-2.07;100.00;101510.84;5280557;28;20062;-72
2024/01/19 01:23:31;;;;;;;51.13;21.50;;;;;;;-2.06;100.00;101509.91;5272210;28;20110;-73
2024/01/19 01:26:01;;;;;;;48.17;21.45;;;;;;;-2.04;100.00;101515.97;5279429;28;20175;-71
2024/01/19 01:28:32;;;;;;;44.67;21.05;;;;;;;-2.05;100.00;101516.06;5277977;28;20130;-71
2024/01/19 01:31:03;;;;;;;47.38;23.05;;;;;;;-2.02;100.00;101523.78;5280079;28;20108;-71
2024/01/19 01:33:33;;;;;;;48.83;22.13;;;;;;;-2.06;100.00;101517.81;5277392;28;20023;-71
2024/01/19 01:36:04;;;;;;;45.78;20.38;;;;;;;-2.15;100.00;101518.25;5276968;28;20023;-73
2024/01/19 01:38:34;;;;;;;51.03;22.05;;;;;;;-2.33;100.00;101519.03;5267799;28;20036;-71
2024/01/19 01:41:05;;;;;;;43.72;20.63;;;;;;;-2.50;100.00;101522.41;5274011;28;20388;-71
2024/01/19 01:43:35;;;;;;;38.20;19.13;;;;;;;-2.57;100.00;101518.31;5272792;28;20036;-71
2024/01/19 01:46:06;;;;;;;42.80;19.33;;;;;;;-2.56;100.00;101526.16;5273201;28;20019;-71
2024/01/19 01:48:36;;;;;;;45.40;20.55;;;;;;;-2.66;100.00;101524.81;5277235;28;20031;-72
2024/01/19 01:51:08;;;;;;;41.03;19.70;;;;;;;-2.81;100.00;101528.09;5268594;28;20027;-72
2024/01/19 01:53:39;;;;;;;38.00;18.75;;;;;;;-2.73;100.00;101531.25;5267700;28;20024;-71
2024/01/19 01:56:09;;;;;;;43.67;22.52;;;;;;;-2.62;100.00;101535.13;5268353;28;20469;-71
2024/01/19 01:58:40;;;;;;;51.80;24.60;;;;;;;-2.51;100.00;101552.22;5272401;28;20057;-71
2024/01/19 02:01:10;;;;;;;68.57;28.63;;;;;;;-2.42;100.00;101546.56;5274573;28;20016;-71
2024/01/19 02:03:41;;;;;;;65.63;25.85;;;;;;;-2.37;100.00;101547.22;5277469;28;20038;-72
2024/01/19 02:06:12;;;;;;;51.70;23.55;;;;;;;-2.45;100.00;101555.47;5269110;27;20032;-71
2024/01/19 02:08:42;;;;;;;53.90;23.90;;;;;;;-2.51;100.00;101553.09;5275419;28;20046;-71
2024/01/19 02:11:13;;;;;;;48.55;23.63;;;;;;;-2.55;100.00;101564.66;5278360;28;20086;-71
2024/01/19 02:13:44;;;;;;;69.10;26.38;;;;;;;-2.50;100.00;101567.09;5272482;28;20048;-72
2024/01/19 02:16:14;;;;;;;65.05;28.98;;;;;;;-2.41;100.00;101566.66;5273300;28;20380;-71
2024/01/19 02:18:45;;;;;;;63.30;29.20;;;;;;;-2.39;100.00;101575.34;5276105;28;20459;-73
2024/01/19 02:21:15;;;;;;;68.18;27.92;;;;;;;-2.33;100.00;101580.34;5273827;28;20154;-71
2024/01/19 02:23:59;;;;;;;68.78;29.35;;;;;;;-2.31;100.00;101594.25;5276152;28;20027;-71
2024/01/19 02:26:32;;;;;;;59.20;26.67;;;;;;;-2.33;100.00;101597.88;5276035;28;20055;-71
2024/01/19 02:29:03;;;;;;;65.70;27.90;;;;;;;-2.37;100.00;101594.53;5273817;28;20134;-71
2024/01/19 02:31:33;;;;;;;66.78;28.83;;;;;;;-2.41;100.00;101598.19;5270242;28;20019;-71
2024/01/19 02:34:24;;;;;;;59.00;27.65;;;;;;;-2.42;100.00;101596.50;5269455;28;20024;-71
2024/01/19 02:36:54;;;;;;;60.45;27.60;;;;;;;-2.46;100.00;101593.16;5278364;28;20031;-71
2024/01/19 02:39:24;;;;;;;55.35;24.52;;;;;;;-2.52;100.00;101600.44;5278300;28;20027;-71
2024/01/19 02:41:55;;;;;;;54.80;25.70;;;;;;;-2.64;100.00;101599.19;5276132;28;20055;-72
2024/01/19 02:44:25;;;;;;;59.63;26.70;;;;;;;-2.67;100.00;101601.91;5272743;28;20506;-72
2024/01/19 02:46:56;;;;;;;66.38;29.02;;;;;;;-2.68;100.00;101601.06;5275549;28;20491;-71
2024/01/19 02:49:26;;;;;;;64.43;27.00;;;;;;;-2.68;100.00;101616.84;5272728;28;20031;-71
2024/01/19 02:51:56;;;;;;;70.25;28.20;;;;;;;-2.67;100.00;101618.53;5275582;28;20057;-71
2024/01/19 02:54:28;;;;;;;55.13;24.55;;;;;;;-2.65;100.00;101613.25;5268921;28;20485;-71
2024/01/19 02:56:58;;;;;;;58.20;24.90;;;;;;;-2.61;100.00;101612.19;5279644;28;20027;-71
2024/01/19 02:59:29;;;;;;;55.17;23.27;;;;;;;-2.62;100.00;101613.09;5277875;28;20064;-72
2024/01/19 03:01:59;;;;;;;70.47;25.98;;;;;;;-2.58;100.00;101609.44;5274935;28;20027;-73
2024/01/19 03:04:43;;;;;;;54.60;23.60;;;;;;;-2.59;100.00;101618.22;5271024;28;20032;-71
2024/01/19 03:07:17;;;;;;;57.37;23.90;;;;;;;-2.61;100.00;101612.19;5276870;28;20046;-71
2024/01/19 03:09:48;;;;;;;58.38;23.35;;;;;;;-2.65;100.00;101621.13;5278891;28;20278;-72
2024/01/19 03:12:19;;;;;;;59.65;22.85;;;;;;;-2.60;100.00;101624.41;5281368;28;20107;-71
2024/01/19 03:14:50;;;;;;;53.33;24.25;;;;;;;-2.59;100.00;101630.53;5278892;28;20162;-73
2024/01/19 03:17:27;;;;;;;54.60;22.83;;;;;;;-2.60;100.00;101632.28;5274579;28;20028;-72
2024/01/19 03:20:01;;;;;;;63.20;23.38;;;;;;;-2.61;100.00;101628.81;5276691;28;20513;-71
2024/01/19 03:22:32;;;;;;;58.55;24.60;;;;;;;-2.62;100.00;101642.00;5277295;28;20031;-71
2024/01/19 03:25:02;;;;;;;66.72;24.88;;;;;;;-2.62;100.00;101647.25;5277425;27;20160;-71
2024/01/19 03:27:37;;;;;;;64.85;25.05;;;;;;;-2.65;100.00;101644.75;5282268;28;20524;-71
2024/01/19 03:30:08;;;;;;;64.20;25.52;;;;;;;-2.68;100.00;101647.50;5272179;28;20032;-70
2024/01/19 03:32:39;;;;;;;61.25;24.67;;;;;;;-2.80;100.00;101643.59;5282500;28;20081;-71
2024/01/19 03:35:10;;;;;;;63.22;25.83;;;;;;;-2.89;100.00;101647.44;5275702;28;20015;-71
2024/01/19 03:37:40;;;;;;;62.35;23.02;;;;;;;-2.89;100.00;101652.69;5274583;28;20068;-71
2024/01/19 03:40:11;;;;;;;59.80;22.85;;;;;;;-2.87;100.00;101648.22;5267055;28;20024;-71
2024/01/19 03:42:42;;;;;;;59.13;22.98;;;;;;;-2.83;100.00;101648.13;5270055;28;20028;-71
2024/01/19 03:45:12;;;;;;;63.95;23.92;;;;;;;-2.84;100.00;101656.91;5278582;28;20027;-70
2024/01/19 03:47:45;;;;;;;56.08;22.88;;;;;;;-2.85;100.00;101656.06;5274792;28;20034;-71
2024/01/19 03:50:15;;;;;;;63.67;25.40;;;;;;;-2.90;100.00;101653.63;5274383;28;20032;-71
2024/01/19 03:52:46;;;;;;;66.75;24.65;;;;;;;-2.94;100.00;101656.44;5274694;28;20034;-71
2024/01/19 03:55:16;;;;;;;55.80;22.23;;;;;;;-2.98;100.00;101655.69;5270816;28;20028;-71
2024/01/19 03:57:47;;;;;;;59.65;24.23;;;;;;;-3.02;100.00;101659.34;5282402;28;20114;-71
2024/01/19 04:00:17;;;;;;;58.40;24.35;;;;;;;-3.01;100.00;101658.44;5269580;28;20027;-71
2024/01/19 04:02:48;;;;;;;59.97;24.55;;;;;;;-3.02;100.00;101663.72;5270425;28;20028;-71
2024/01/19 04:05:18;;;;;;;64.07;23.90;;;;;;;-3.02;100.00;101661.97;5276221;28;20162;-71
2024/01/19 04:07:49;;;;;;;56.65;23.33;;;;;;;-3.06;100.00;101663.00;5271774;28;20413;-70
2024/01/19 04:10:19;;;;;;;63.60;24.38;;;;;;;-3.08;100.00;101670.06;5273196;28;20055;-70
2024/01/19 04:12:51;;;;;;;60.13;24.02;;;;;;;-3.08;100.00;101663.97;5274738;28;20114;-71
2024/01/19 04:15:22;;;;;;;61.83;23.73;;;;;;;-3.06;100.00;101676.16;5272108;28;20030;-71
2024/01/19 04:17:52;;;;;;;55.38;24.48;;;;;;;-3.04;100.00;101673.44;5278907;28;20027;-71
2024/01/19 04:20:23;;;;;;;60.30;23.92;;;;;;;-3.09;100.00;101678.03;5277009;28;20370;-71
2024/01/19 04:22:53;;;;;;;54.60;22.58;;;;;;;-3.15;100.00;101679.13;5275081;28;20034;-71
2024/01/19 04:25:24;;;;;;;59.13;24.10;;;;;;;-3.20;100.00;101683.69;5274003;28;20058;-71
2024/01/19 04:27:55;;;;;;;63.63;22.98;;;;;;;-3.23;100.00;101686.41;5281451;28;20031;-71
2024/01/19 04:30:25;;;;;;;55.40;22.67;;;;;;;-3.25;100.00;101696.97;5277949;28;20103;-71
2024/01/19 04:32:56;;;;;;;57.58;24.13;;;;;;;-3.26;100.00;101703.13;5277137;28;20111;-71
2024/01/19 04:35:26;;;;;;;56.63;23.02;;;;;;;-3.30;100.00;101705.94;5273342;28;20008;-71
2024/01/19 04:37:57;;;;;;;63.25;23.92;;;;;;;-3.30;100.00;101712.03;5280653;28;20053;-71
2024/01/19 04:40:27;;;;;;;59.80;23.55;;;;;;;-3.30;100.00;101719.06;5269928;28;20028;-71
2024/01/19 04:42:58;;;;;;;60.90;23.00;;;;;;;-3.40;100.00;101716.75;5272616;28;20035;-71
2024/01/19 04:45:28;;;;;;;64.32;23.83;;;;;;;-3.41;100.00;101715.06;5277316;28;20564;-71
2024/01/19 04:47:58;;;;;;;65.72;24.10;;;;;;;-3.39;100.00;101715.84;5279615;28;20536;-71
2024/01/19 04:50:29;;;;;;;61.10;22.50;;;;;;;-3.42;100.00;101713.31;5274541;28;20119;-71
2024/01/19 04:52:59;;;;;;;63.63;23.13;;;;;;;-3.41;100.00;101712.44;5274888;28;20127;-71
2024/01/19 04:55:30;;;;;;;69.10;24.02;;;;;;;-3.39;100.00;101723.72;5277220;28;20040;-71
2024/01/19 04:58:00;;;;;;;63.20;23.85;;;;;;;-3.36;100.00;101720.13;5275935;27;20036;-71
2024/01/19 05:00:31;;;;;;;62.25;24.00;;;;;;;-3.34;100.00;101720.94;5277199;28;20036;-70
2024/01/19 05:03:01;;;;;;;70.55;24.73;;;;;;;-3.30;100.00;101732.19;5275555;28;20477;-71
2024/01/19 05:05:32;;;;;;;64.95;24.58;;;;;;;-3.29;100.00;101729.47;5270588;28;20446;-71
2024/01/19 05:08:03;;;;;;;69.07;25.30;;;;;;;-3.27;100.00;101732.03;5274109;28;20492;-71
2024/01/19 05:10:34;;;;;;;62.92;23.58;;;;;;;-3.29;100.00;101734.72;5271142;28;20579;-71
2024/01/19 05:13:04;;;;;;;66.10;23.92;;;;;;;-3.27;100.00;101751.25;5277367;28;20026;-71
2024/01/19 05:15:35;;;;;;;63.63;23.42;;;;;;;-3.28;100.00;101746.09;5277553;28;20027;-71
2024/01/19 05:18:05;;;;;;;68.03;24.15;;;;;;;-3.25;100.00;101736.34;5274785;28;20029;-71
2024/01/19 05:20:38;;;;;;;65.22;23.35;;;;;;;-3.25;100.00;101761.72;5274742;28;20069;-71
2024/01/19 05:23:08;;;;;;;65.35;23.92;;;;;;;-3.21;100.00;101760.72;5270507;28;20434;-71
2024/01/19 05:25:39;;;;;;;61.20;22.92;;;;;;;-3.19;100.00;101766.75;5273677;28;20073;-71
2024/01/19 05:28:09;;;;;;;65.57;25.48;;;;;;;-3.20;100.00;101757.16;5273505;28;20020;-71
2024/01/19 05:30:39;;;;;;;67.95;22.73;;;;;;;-3.13;100.00;101764.75;5277552;28;20103;-71
2024/01/19 05:33:10;;;;;;;67.75;24.90;;;;;;;-3.07;100.00;101768.06;5276960;28;20054;-71
2024/01/19 05:35:40;;;;;;;62.35;23.95;;;;;;;-3.01;100.00;101773.06;5271069;28;20076;-71
2024/01/19 05:38:11;;;;;;;65.20;26.77;;;;;;;-3.03;100.00;101769.66;5269098;28;20484;-71
2024/01/19 05:40:41;;;;;;;70.45;23.35;;;;;;;-3.06;100.00;101769.75;5275139;28;20446;-71
2024/01/19 05:43:12;;;;;;;57.28;23.02;;;;;;;-3.07;100.00;101783.81;5276529;28;20038;-71
2024/01/19 05:45:42;;;;;;;67.57;23.92;;;;;;;-3.10;100.00;101781.31;5273831;28;20464;-71
2024/01/19 05:48:13;;;;;;;59.47;23.70;;;;;;;-3.11;100.00;101785.72;5276448;28;20483;-70
2024/01/19 05:50:43;;;;;;;56.85;23.13;;;;;;;-3.12;100.00;101790.06;5277612;28;20110;-71
2024/01/19 05:53:14;;;;;;;62.47;22.67;;;;;;;-3.12;100.00;101789.22;5267584;28;20065;-71
2024/01/19 05:55:44;;;;;;;59.67;23.00;;;;;;;-3.13;100.00;101791.00;5268208;28;20073;-71
2024/01/19 05:58:15;;;;;;;65.05;23.60;;;;;;;-3.15;100.00;101791.97;5275599;28;20026;-71
2024/01/19 06:00:46;;;;;;;72.53;23.27;;;;;;;-3.22;100.00;101799.19;5277277;28;20028;-71
2024/01/19 06:03:16;;;;;;;66.07;24.25;;;;;;;-3.23;100.00;101801.88;5275574;28;20043;-71
2024/01/19 06:05:47;;;;;;;64.57;24.13;;;;;;;-3.24;100.00;101811.53;5273594;28;20027;-71
2024/01/19 06:08:17;;;;;;;71.55;24.05;;;;;;;-3.29;100.00;101812.59;5272564;27;20020;-71
2024/01/19 06:10:48;;;;;;;73.80;25.08;;;;;;;-3.31;100.00;101817.91;5271907;28;20114;-71
2024/01/19 06:13:18;;;;;;;74.40;24.27;;;;;;;-3.30;100.00;101816.16;5271008;28;20024;-71
2024/01/19 06:15:50;;;;;;;77.32;25.73;;;;;;;-3.35;100.00;101818.94;5270274;28;20074;-71
2024/01/19 06:18:20;;;;;;;74.38;26.45;;;;;;;-3.34;100.00;101825.88;5267880;28;20401;-71
2024/01/19 06:20:51;;;;;;;68.85;24.80;;;;;;;-3.33;100.00;101832.84;5268859;28;20024;-71
2024/01/19 06:23:22;;;;;;;62.95;23.75;;;;;;;-3.33;100.00;101832.00;5270808;28;20024;-71
2024/01/19 06:25:52;;;;;;;56.55;23.95;;;;;;;-3.38;100.00;101840.88;5270358;28;20069;-71
2024/01/19 06:28:23;;;;;;;78.65;25.58;;;;;;;-3.39;100.00;101843.56;5267519;28;20397;-71
2024/01/19 06:30:53;;;;;;;64.60;23.85;;;;;;;-3.41;100.00;101856.75;5270189;28;20024;-71
2024/01/19 06:33:24;;;;;;;64.28;25.13;;;;;;;-3.47;100.00;101859.53;5273404;28;20028;-71
2024/01/19 06:35:54;;;;;;;63.08;23.50;;;;;;;-3.59;100.00;101862.59;5268489;28;20107;-70
2024/01/19 06:38:25;;;;;;;60.97;22.70;;;;;;;-3.66;100.00;101869.81;5271606;28;20044;-71
2024/01/19 06:40:55;;;;;;;65.55;24.88;;;;;;;-3.65;100.00;101871.53;5275933;28;20024;-71
2024/01/19 06:43:25;;;;;;;67.82;24.50;;;;;;;-3.58;100.00;101880.03;5270831;28;20016;-71
2024/01/19 06:45:56;;;;;;;78.53;26.02;;;;;;;-3.56;100.00;101878.25;5275656;28;20099;-71
2024/01/19 06:48:26;;;;;;;64.55;24.35;;;;;;;-3.52;100.00;101876.34;5272788;28;20016;-71
2024/01/19 06:50:57;;;;;;;65.63;24.00;;;;;;;-3.53;100.00;101886.00;5275966;28;20833;-70
2024/01/19 06:53:27;;;;;;;74.93;27.10;;;;;;;-3.52;100.00;101885.06;5273664;28;20024;-71
2024/01/19 06:55:58;;;;;;;87.53;31.27;;;;;;;-3.57;100.00;101894.88;5272725;28;20028;-71
2024/01/19 06:58:28;;;;;;;76.90;31.58;;;;;;;-3.56;100.00;101893.13;5274692;28;20107;-70
2024/01/19 07:00:59;;;;;;;74.70;30.13;;;;;;;-3.56;100.00;101895.75;5274237;28;20020;-71
2024/01/19 07:03:29;;;;;;;72.65;27.77;;;;;;;-3.59;100.00;101901.94;5273118;28;20462;-71
2024/01/19 07:06:00;;;;;;;79.45;28.92;;;;;;;-3.59;100.00;101907.19;5272415;28;20028;-71
2024/01/19 07:08:30;;;;;;;75.65;27.40;;;;;;;-3.60;100.00;101908.09;5274565;28;20051;-71
2024/01/19 07:11:00;;;;;;;79.10;26.85;;;;;;;-3.60;100.00;101902.84;5274283;28;20027;-70
2024/01/19 07:13:31;;;;;;;87.97;28.88;;;;;;;-3.60;100.00;101912.50;5277288;28;20031;-70
2024/01/19 07:16:01;;;;;;;78.40;26.92;;;;;;;-3.59;100.00;101914.19;5276272;28;20686;-71
2024/01/19 07:18:32;;;;;;;74.68;26.58;;;;;;;-3.54;100.00;101918.38;5273029;28;20073;-71
2024/01/19 07:21:02;;;;;;;77.65;26.70;;;;;;;-3.55;100.00;101916.69;5275206;28;21246;-71
2024/01/19 07:23:34;;;;;;;82.32;26.77;;;;;;;-3.51;100.00;101915.69;5275795;28;20666;-71
2024/01/19 07:26:05;;;;;;;76.40;25.73;;;;;;;-3.53;100.00;101917.47;5276828;28;20026;-70
2024/01/19 07:28:36;;;;;;;78.57;25.30;;;;;;;-3.56;100.00;101920.22;5265584;28;20036;-70
2024/01/19 07:31:06;;;;;;;70.75;26.33;;;;;;;-3.58;100.00;101924.63;5277338;28;20027;-71
2024/01/19 07:33:37;;;;;;;68.97;25.45;;;;;;;-3.56;100.00;101935.09;5273861;28;20048;-71
2024/01/19 07:36:07;;;;;;;77.13;26.77;;;;;;;-3.49;100.00;101947.94;5273347;28;20019;-71
2024/01/19 07:38:38;;;;;;;80.43;26.60;;;;;;;-3.50;100.00;101937.50;5269813;28;20028;-71
2024/01/19 07:41:08;;;;;;;69.30;24.77;;;;;;;-3.48;100.00;101936.53;5273712;28;20119;-70
2024/01/19 07:43:39;;;;;;;86.35;25.35;;;;;;;-3.43;100.00;101941.66;5268560;28;20028;-70
2024/01/19 07:46:11;;;;;;;79.07;31.25;;;;;;;-3.38;100.00;101947.59;5273192;28;20023;-71
2024/01/19 07:48:42;;;;;;;79.07;28.67;;;;;;;-3.34;100.00;101943.13;5273057;28;20055;-70
2024/01/19 07:51:12;;;;;;;77.45;26.95;;;;;;;-3.29;100.00;101951.69;5269778;28;20104;-71
2024/01/19 07:53:43;;;;;;;86.63;29.52;;;;;;;-3.27;100.00;101955.97;5273547;28;20046;-71
2024/01/19 07:56:13;;;;;;;82.97;29.70;;;;;;;-3.20;100.00;101961.91;5270230;28;20137;-70
2024/01/19 07:58:44;;;;;;;78.38;27.67;;;;;;;-3.17;100.00;101964.41;5273480;28;20473;-71
2024/01/19 08:01:15;;;;;;;78.32;25.65;;;;;;;-3.16;100.00;101966.13;5273057;28;20068;-71
2024/01/19 08:03:45;;;;;;;76.95;29.77;;;;;;;-3.12;100.00;101973.84;5273808;28;20028;-70
2024/01/19 08:06:15;;;;;;;66.93;27.67;;;;;;;-3.05;100.00;101973.66;5269745;28;20034;-70
2024/01/19 08:08:46;;;;;;;74.43;27.33;;;;;;;-3.01;100.00;101976.13;5273697;28;20082;-71
2024/01/19 08:11:16;;;;;;;75.75;26.85;;;;;;;-2.90;100.00;101979.25;5272452;28;20097;-71
2024/01/19 08:13:47;;;;;;;71.72;25.83;;;;;;;-2.79;100.00;101985.88;5271230;28;20087;-71
2024/01/19 08:16:17;;;;;;;71.05;27.05;;;;;;;-2.67;100.00;101995.97;5271672;28;20020;-71
2024/01/19 08:18:48;;;;;;;66.05;24.00;;;;;;;-2.60;100.00;102002.72;5271086;28;20027;-71
2024/01/19 08:21:18;;;;;;;61.67;23.13;;;;;;;-2.58;100.00;102000.03;5274236;28;20381;-71
2024/01/19 08:23:49;;;;;;;65.88;23.35;;;;;;;-2.59;100.00;102007.06;5275921;28;20572;-71
2024/01/19 08:26:20;;;;;;;58.80;23.48;;;;;;;-2.58;100.00;102006.16;5273185;27;20024;-71
2024/01/19 08:28:51;;;;;;;58.35;21.98;;;;;;;-2.46;100.00;102011.00;5270229;28;21338;-71
2024/01/19 08:31:21;;;;;;;52.90;21.38;;;;;;;-2.27;100.00;102023.44;5273652;28;20027;-71
2024/01/19 08:33:52;;;;;;;59.28;22.88;;;;;;;-2.04;100.00;102015.59;5275155;28;20019;-70
2024/01/19 08:36:28;;;;;;;51.55;20.95;;;;;;;-1.91;100.00;102029.13;5269298;28;20072;-71
2024/01/19 08:38:59;;;;;;;51.25;19.45;;;;;;;-1.55;100.00;102026.88;5272678;28;20023;-71
2024/01/19 08:41:29;;;;;;;54.90;21.55;;;;;;;-1.35;100.00;102029.59;5269507;28;20085;-71
2024/01/19 08:44:00;;;;;;;49.72;18.35;;;;;;;-0.96;100.00;102042.03;5276938;28;20059;-71
2024/01/19 08:46:30;;;;;;;45.38;18.05;;;;;;;-0.76;100.00;102043.84;5272881;28;20630;-71
2024/01/19 08:49:01;;;;;;;42.95;17.70;;;;;;;-0.65;100.00;102051.34;5275384;28;20056;-71
2024/01/19 08:51:31;;;;;;;46.95;19.38;;;;;;;-0.41;100.00;102047.63;5272453;28;20019;-71
2024/01/19 08:54:02;;;;;;;59.45;20.08;;;;;;;-0.22;100.00;102055.59;5270981;28;20023;-71
2024/01/19 08:56:33;;;;;;;48.45;18.92;;;;;;;-0.20;100.00;102058.16;5270264;28;20676;-71
2024/01/19 08:59:03;;;;;;;39.42;17.83;;;;;;;-0.07;100.00;102065.47;5270609;28;20039;-71
2024/01/19 09:01:34;;;;;;;51.70;18.98;;;;;;;0.06;100.00;102060.50;5269989;28;20020;-72
2024/01/19 09:04:04;;;;;;;43.33;18.70;;;;;;;0.24;100.00;102075.50;5271253;28;20023;-72
2024/01/19 09:06:35;;;;;;;47.65;19.33;;;;;;;0.51;100.00;102078.66;5268991;28;20032;-72
2024/01/19 09:09:05;;;;;;;45.13;19.98;;;;;;;0.57;100.00;102077.53;5269137;28;20035;-72
2024/01/19 09:11:36;;;;;;;47.33;18.85;;;;;;;0.58;100.00;102087.16;5268231;28;20034;-72
2024/01/19 09:14:09;;;;;;;44.85;18.65;;;;;;;0.71;100.00;102085.66;5272713;28;20019;-73
2024/01/19 09:16:43;;;;;;;49.83;18.02;;;;;;;0.68;100.00;102096.34;5271853;28;20063;-72
2024/01/19 09:19:13;;;;;;;40.90;18.02;;;;;;;0.72;100.00;102091.78;5270330;28;20020;-73
2024/01/19 09:21:44;;;;;;;53.30;35.45;;;;;;;1.04;100.00;102087.59;5269584;28;20030;-73
2024/01/19 09:24:14;;;;;;;41.88;17.75;;;;;;;0.85;100.00;102092.91;5269328;28;20031;-73
2024/01/19 09:26:45;;;;;;;49.42;18.65;;;;;;;0.74;100.00;102098.69;5265683;28;20020;-72
2024/01/19 09:29:16;;;;;;;42.28;18.05;;;;;;;0.98;100.00;102098.47;5265880;28;20023;-73
2024/01/19 09:31:47;;;;;;;47.83;19.52;;;;;;;0.81;100.00;102112.50;5270578;28;20027;-72
2024/01/19 09:34:18;;;;;;;45.92;18.85;;;;;;;0.93;100.00;102100.47;5266077;28;20027;-73
2024/01/19 09:36:48;;;;;;;41.05;18.25;;;;;;;1.26;100.00;102121.78;5264574;28;20497;-73
2024/01/19 09:39:21;;;;;;;54.55;19.70;;;;;;;1.15;100.00;102119.63;5269170;28;20052;-73
2024/01/19 09:42:03;;;;;;;44.03;18.02;;;;;;;1.12;100.00;102116.31;5270532;28;20031;-73
2024/01/19 09:44:35;;;;;;;43.45;18.02;;;;;;;1.15;100.00;102122.28;5262251;28;20385;-72
2024/01/19 09:47:15;;;;;;;44.85;19.13;;;;;;;1.11;100.00;102135.75;5271301;28;20449;-72
2024/01/19 09:49:47;;;;;;;43.78;19.25;;;;;;;1.46;100.00;102137.53;5269518;28;20036;-72
2024/01/19 09:52:39;;;;;;;39.10;16.80;;;;;;;1.71;100.00;102145.09;5270709;28;20049;-73
2024/01/19 09:55:11;;;;;;;45.28;17.52;;;;;;;1.78;100.00;102143.81;5271033;28;20051;-73
2024/01/19 09:57:45;;;;;;;40.25;17.60;;;;;;;1.66;100.00;102144.47;5269426;28;20111;-72
2024/01/19 10:00:17;;;;;;;48.13;18.85;;;;;;;1.59;100.00;102155.41;5269198;28;20081;-72
2024/01/19 10:02:51;;;;;;;43.30;19.05;;;;;;;1.74;100.00;102155.50;5267935;28;20074;-72
2024/01/19 10:05:22;;;;;;;45.70;19.33;;;;;;;1.57;100.00;102157.28;5266298;28;20035;-73
2024/01/19 10:07:55;;;;;;;43.03;18.55;;;;;;;1.68;100.00;102155.81;5268477;28;20560;-72
2024/01/19 10:10:25;;;;;;;50.30;19.42;;;;;;;1.73;100.00;102159.06;5266739;28;20427;-72
2024/01/19 10:12:56;;;;;;;50.53;19.80;;;;;;;1.75;100.00;102161.63;5272956;28;20027;-72
2024/01/19 10:15:27;;;;;;;45.05;19.75;;;;;;;1.68;100.00;102162.91;5275265;27;20024;-72
2024/01/19 10:17:59;;;;;;;44.38;19.60;;;;;;;1.84;100.00;102168.25;5275977;28;20106;-72
2024/01/19 10:20:30;;;;;;;42.65;18.77;;;;;;;1.81;100.00;102167.50;5274550;28;20075;-72
2024/01/19 10:23:22;;;;;;;45.15;19.27;;;;;;;1.81;100.00;102167.50;5276445;28;21470;-72
2024/01/19 10:26:11;;;;;;;47.80;20.50;;;;;;;1.90;100.00;102167.94;5273730;28;20024;-72
2024/01/19 10:28:42;;;;;;;57.08;21.00;;;;;;;1.96;100.00;102162.38;5273888;28;20035;-72
2024/01/19 10:31:15;;;;;;;56.22;21.98;;;;;;;1.83;100.00;102171.84;5272573;27;20035;-72
2024/01/19 10:33:52;;;;;;;47.75;20.92;;;;;;;1.92;100.00;102182.81;5274323;28;20077;-72
2024/01/19 10:36:23;;;;;;;41.42;19.48;;;;;;;1.98;100.00;102166.63;5271864;28;20031;-72
2024/01/19 10:39:14;;;;;;;45.15;20.27;;;;;;;2.07;100.00;102181.19;5276190;28;20020;-72
2024/01/19 10:41:45;;;;;;;51.47;22.23;;;;;;;2.23;100.00;102174.16;5273688;28;20028;-72
2024/01/19 10:44:17;;;;;;;50.38;20.52;;;;;;;2.24;100.00;102175.88;5273474;28;20011;-72
2024/01/19 10:46:50;;;;;;;52.20;19.92;;;;;;;2.30;100.00;102172.88;5277447;28;20028;-72
2024/01/19 10:49:20;;;;;;;45.40;19.73;;;;;;;2.25;100.00;102174.91;5274914;27;20031;-72
2024/01/19 10:51:52;;;;;;;48.72;20.48;;;;;;;2.30;100.00;102179.97;5276170;28;20024;-72
2024/01/19 10:54:25;;;;;;;44.42;19.83;;;;;;;2.31;100.00;102171.13;5274118;27;20062;-72
2024/01/19 10:57:03;;;;;;;40.15;18.48;;;;;;;2.37;100.00;102176.09;5276327;28;20024;-72
2024/01/19 10:59:35;;;;;;;45.78;20.67;;;;;;;2.43;100.00;102180.19;5274236;28;20019;-72
2024/01/19 11:02:05;;;;;;;47.92;21.83;;;;;;;2.49;100.00;102180.72;5275928;28;20023;-72
2024/01/19 11:04:37;;;;;;;53.17;20.83;;;;;;;2.55;100.00;102180.38;5272297;28;20024;-72
2024/01/19 11:07:08;;;;;;;41.55;20.33;;;;;;;2.52;100.00;102180.56;5276373;27;20023;-72
2024/01/19 11:09:40;;;;;;;40.72;19.40;;;;;;;2.58;100.00;102182.03;5270515;28;20032;-72
2024/01/19 11:12:15;;;;;;;45.58;19.77;;;;;;;2.58;100.00;102182.88;5274580;27;20618;-72
2024/01/19 11:14:46;;;;;;;54.83;25.98;;;;;;;2.51;100.00;102183.28;5272815;28;20024;-72
2024/01/19 11:17:17;;;;;;;46.08;20.77;;;;;;;2.59;100.00;102173.16;5276387;27;20740;-72
2024/01/19 11:19:48;;;;;;;49.95;21.30;;;;;;;2.72;100.00;102176.00;5275836;28;20024;-72